sensor_id;sensor_type;location;lat;lon;timestamp;P1;durP1;ratioP1;P2;durP2;ratioP2
21581;SDS011;10952;50.836;4.348;2023-02-20T00:02:19;21.30;;;7.87;;
21581;SDS011;10952;50.836;4.348;2023-02-20T00:07:16;17.17;;;7.57;;
21581;SDS011;10952;50.836;4.348;2023-02-20T00:09:42;28.53;;;7.83;;
21581;SDS011;10952;50.836;4.348;2023-02-20T00:12:10;18.77;;;8.40;;
21581;SDS011;10952;50.836;4.348;2023-02-20T00:19:36;19.37;;;8.03;;
21581;SDS011;10952;50.836;4.348;2023-02-20T00:24:30;17.37;;;7.80;;
21581;SDS011;10952;50.836;4.348;2023-02-20T00:26:56;17.50;;;7.50;;
21581;SDS011;10952;50.836;4.348;2023-02-20T00:29:23;21.27;;;8.10;;
21581;SDS011;10952;50.836;4.348;2023-02-20T00:31:52;20.60;;;7.80;;
21581;SDS011;10952;50.836;4.348;2023-02-20T00:34:20;13.37;;;6.27;;
21581;SDS011;10952;50.836;4.348;2023-02-20T00:36:46;15.33;;;7.47;;
21581;SDS011;10952;50.836;4.348;2023-02-20T00:39:13;14.43;;;6.43;;
21581;SDS011;10952;50.836;4.348;2023-02-20T00:41:39;21.10;;;7.50;;
21581;SDS011;10952;50.836;4.348;2023-02-20T00:44:05;17.47;;;7.17;;
21581;SDS011;10952;50.836;4.348;2023-02-20T00:46:30;19.63;;;6.93;;
21581;SDS011;10952;50.836;4.348;2023-02-20T00:48:59;18.93;;;6.47;;
21581;SDS011;10952;50.836;4.348;2023-02-20T00:53:58;17.47;;;7.53;;
21581;SDS011;10952;50.836;4.348;2023-02-20T00:56:27;18.80;;;8.60;;
21581;SDS011;10952;50.836;4.348;2023-02-20T00:58:56;23.00;;;9.30;;
21581;SDS011;10952;50.836;4.348;2023-02-20T01:01:23;23.93;;;10.63;;
21581;SDS011;10952;50.836;4.348;2023-02-20T01:07:12;25.67;;;10.33;;
21581;SDS011;10952;50.836;4.348;2023-02-20T01:15:15;30.93;;;12.63;;
21581;SDS011;10952;50.836;4.348;2023-02-20T01:17:41;26.97;;;12.00;;
21581;SDS011;10952;50.836;4.348;2023-02-20T01:20:10;26.03;;;12.10;;
21581;SDS011;10952;50.836;4.348;2023-02-20T01:22:42;25.27;;;11.17;;
21581;SDS011;10952;50.836;4.348;2023-02-20T01:25:11;22.77;;;12.80;;
21581;SDS011;10952;50.836;4.348;2023-02-20T01:27:42;25.33;;;12.37;;
21581;SDS011;10952;50.836;4.348;2023-02-20T01:30:08;26.53;;;13.73;;
21581;SDS011;10952;50.836;4.348;2023-02-20T01:32:34;33.47;;;13.73;;
21581;SDS011;10952;50.836;4.348;2023-02-20T01:35:01;27.23;;;14.43;;
21581;SDS011;10952;50.836;4.348;2023-02-20T01:37:30;34.33;;;14.97;;
21581;SDS011;10952;50.836;4.348;2023-02-20T01:39:59;38.07;;;18.30;;
21581;SDS011;10952;50.836;4.348;2023-02-20T01:45:16;23.10;;;11.80;;
21581;SDS011;10952;50.836;4.348;2023-02-20T01:47:47;27.57;;;13.20;;
21581;SDS011;10952;50.836;4.348;2023-02-20T01:50:15;23.50;;;11.90;;
21581;SDS011;10952;50.836;4.348;2023-02-20T01:52:46;26.60;;;11.60;;
21581;SDS011;10952;50.836;4.348;2023-02-20T01:58:41;28.97;;;12.20;;
21581;SDS011;10952;50.836;4.348;2023-02-20T02:01:13;24.73;;;11.93;;
21581;SDS011;10952;50.836;4.348;2023-02-20T02:03:43;27.17;;;13.00;;
21581;SDS011;10952;50.836;4.348;2023-02-20T02:06:15;28.73;;;12.10;;
21581;SDS011;10952;50.836;4.348;2023-02-20T02:11:51;21.07;;;10.70;;
21581;SDS011;10952;50.836;4.348;2023-02-20T02:25:55;23.93;;;11.53;;
21581;SDS011;10952;50.836;4.348;2023-02-20T02:37:22;28.20;;;12.07;;
21581;SDS011;10952;50.836;4.348;2023-02-20T02:45:59;21.93;;;11.37;;
21581;SDS011;10952;50.836;4.348;2023-02-20T02:48:48;27.50;;;12.13;;
21581;SDS011;10952;50.836;4.348;2023-02-20T02:51:22;27.03;;;11.77;;
21581;SDS011;10952;50.836;4.348;2023-02-20T02:56:43;30.57;;;11.43;;
21581;SDS011;10952;50.836;4.348;2023-02-20T02:59:24;24.27;;;11.17;;
21581;SDS011;10952;50.836;4.348;2023-02-20T03:07:20;30.17;;;11.13;;
21581;SDS011;10952;50.836;4.348;2023-02-20T03:09:50;23.23;;;10.43;;
21581;SDS011;10952;50.836;4.348;2023-02-20T03:12:30;25.17;;;12.47;;
21581;SDS011;10952;50.836;4.348;2023-02-20T03:15:03;23.07;;;11.43;;
21581;SDS011;10952;50.836;4.348;2023-02-20T03:21:19;30.00;;;11.73;;
21581;SDS011;10952;50.836;4.348;2023-02-20T03:23:53;23.30;;;10.60;;
21581;SDS011;10952;50.836;4.348;2023-02-20T03:29:45;18.73;;;9.33;;
21581;SDS011;10952;50.836;4.348;2023-02-20T03:32:16;24.43;;;9.27;;
21581;SDS011;10952;50.836;4.348;2023-02-20T03:38:23;26.77;;;9.63;;
21581;SDS011;10952;50.836;4.348;2023-02-20T03:44:34;22.33;;;8.33;;
21581;SDS011;10952;50.836;4.348;2023-02-20T03:50:24;20.83;;;7.47;;
21581;SDS011;10952;50.836;4.348;2023-02-20T03:56:13;21.07;;;7.17;;
21581;SDS011;10952;50.836;4.348;2023-02-20T03:58:44;26.47;;;7.10;;
21581;SDS011;10952;50.836;4.348;2023-02-20T04:04:44;22.83;;;7.07;;
21581;SDS011;10952;50.836;4.348;2023-02-20T04:07:27;19.13;;;7.30;;
21581;SDS011;10952;50.836;4.348;2023-02-20T04:09:59;18.90;;;6.93;;
21581;SDS011;10952;50.836;4.348;2023-02-20T04:12:30;16.07;;;6.87;;
21581;SDS011;10952;50.836;4.348;2023-02-20T04:15:00;15.40;;;6.70;;
21581;SDS011;10952;50.836;4.348;2023-02-20T04:17:29;26.77;;;7.57;;
21581;SDS011;10952;50.836;4.348;2023-02-20T04:19:58;21.07;;;7.50;;
21581;SDS011;10952;50.836;4.348;2023-02-20T04:22:26;25.60;;;8.40;;
21581;SDS011;10952;50.836;4.348;2023-02-20T04:25:05;28.43;;;8.03;;
21581;SDS011;10952;50.836;4.348;2023-02-20T04:27:47;17.67;;;7.07;;
21581;SDS011;10952;50.836;4.348;2023-02-20T04:30:15;19.73;;;7.20;;
21581;SDS011;10952;50.836;4.348;2023-02-20T04:32:42;17.63;;;7.00;;
21581;SDS011;10952;50.836;4.348;2023-02-20T04:35:11;22.07;;;7.27;;
21581;SDS011;10952;50.836;4.348;2023-02-20T04:37:42;15.83;;;7.43;;
21581;SDS011;10952;50.836;4.348;2023-02-20T04:40:09;16.10;;;6.40;;
21581;SDS011;10952;50.836;4.348;2023-02-20T04:42:36;18.83;;;7.80;;
21581;SDS011;10952;50.836;4.348;2023-02-20T04:45:01;24.23;;;7.07;;
21581;SDS011;10952;50.836;4.348;2023-02-20T04:47:28;16.43;;;6.37;;
21581;SDS011;10952;50.836;4.348;2023-02-20T04:49:53;18.53;;;6.73;;
21581;SDS011;10952;50.836;4.348;2023-02-20T04:54:51;23.80;;;7.40;;
21581;SDS011;10952;50.836;4.348;2023-02-20T04:57:20;23.33;;;7.77;;
21581;SDS011;10952;50.836;4.348;2023-02-20T04:59:49;15.53;;;7.27;;
21581;SDS011;10952;50.836;4.348;2023-02-20T05:02:18;18.83;;;6.93;;
21581;SDS011;10952;50.836;4.348;2023-02-20T05:04:43;28.73;;;7.30;;
21581;SDS011;10952;50.836;4.348;2023-02-20T05:10:19;18.20;;;6.17;;
21581;SDS011;10952;50.836;4.348;2023-02-20T05:12:48;26.53;;;8.20;;
21581;SDS011;10952;50.836;4.348;2023-02-20T05:15:14;17.93;;;6.47;;
21581;SDS011;10952;50.836;4.348;2023-02-20T05:17:43;16.93;;;6.27;;
21581;SDS011;10952;50.836;4.348;2023-02-20T05:20:10;19.10;;;6.17;;
21581;SDS011;10952;50.836;4.348;2023-02-20T05:22:40;24.57;;;6.43;;
21581;SDS011;10952;50.836;4.348;2023-02-20T05:25:06;14.60;;;5.40;;
21581;SDS011;10952;50.836;4.348;2023-02-20T05:27:32;15.07;;;6.23;;
21581;SDS011;10952;50.836;4.348;2023-02-20T05:30:01;14.47;;;6.37;;
21581;SDS011;10952;50.836;4.348;2023-02-20T05:32:31;20.77;;;5.47;;
21581;SDS011;10952;50.836;4.348;2023-02-20T05:37:25;14.37;;;5.20;;
21581;SDS011;10952;50.836;4.348;2023-02-20T05:39:56;19.27;;;5.40;;
21581;SDS011;10952;50.836;4.348;2023-02-20T05:42:21;13.30;;;5.27;;
21581;SDS011;10952;50.836;4.348;2023-02-20T05:44:48;19.60;;;4.80;;
21581;SDS011;10952;50.836;4.348;2023-02-20T05:47:17;13.30;;;4.63;;
21581;SDS011;10952;50.836;4.348;2023-02-20T05:49:44;27.03;;;5.57;;
21581;SDS011;10952;50.836;4.348;2023-02-20T05:52:12;19.50;;;4.87;;
21581;SDS011;10952;50.836;4.348;2023-02-20T05:54:41;15.63;;;4.97;;
21581;SDS011;10952;50.836;4.348;2023-02-20T05:57:10;15.70;;;4.30;;
21581;SDS011;10952;50.836;4.348;2023-02-20T05:59:36;29.83;;;9.97;;
21581;SDS011;10952;50.836;4.348;2023-02-20T06:02:04;16.60;;;5.27;;
21581;SDS011;10952;50.836;4.348;2023-02-20T06:04:33;15.23;;;5.07;;
21581;SDS011;10952;50.836;4.348;2023-02-20T06:09:31;20.43;;;4.60;;
21581;SDS011;10952;50.836;4.348;2023-02-20T06:11:59;14.77;;;4.57;;
21581;SDS011;10952;50.836;4.348;2023-02-20T06:14:26;19.67;;;4.63;;
21581;SDS011;10952;50.836;4.348;2023-02-20T06:19:22;17.93;;;5.30;;
21581;SDS011;10952;50.836;4.348;2023-02-20T06:21:53;14.10;;;5.63;;
21581;SDS011;10952;50.836;4.348;2023-02-20T06:24:20;13.00;;;5.40;;
21581;SDS011;10952;50.836;4.348;2023-02-20T06:26:49;17.97;;;5.20;;
21581;SDS011;10952;50.836;4.348;2023-02-20T06:29:19;14.13;;;4.93;;
21581;SDS011;10952;50.836;4.348;2023-02-20T06:31:45;15.67;;;4.63;;
21581;SDS011;10952;50.836;4.348;2023-02-20T06:34:12;18.53;;;5.07;;
21581;SDS011;10952;50.836;4.348;2023-02-20T06:36:39;19.70;;;5.67;;
21581;SDS011;10952;50.836;4.348;2023-02-20T06:39:06;16.07;;;5.20;;
21581;SDS011;10952;50.836;4.348;2023-02-20T06:41:33;12.80;;;5.20;;
21581;SDS011;10952;50.836;4.348;2023-02-20T06:46:28;12.70;;;4.77;;
21581;SDS011;10952;50.836;4.348;2023-02-20T06:48:55;15.27;;;4.87;;
21581;SDS011;10952;50.836;4.348;2023-02-20T06:51:30;15.77;;;5.30;;
21581;SDS011;10952;50.836;4.348;2023-02-20T06:54:00;16.57;;;5.27;;
21581;SDS011;10952;50.836;4.348;2023-02-20T06:56:34;7.67;;;4.47;;
21581;SDS011;10952;50.836;4.348;2023-02-20T06:59:02;20.43;;;5.87;;
21581;SDS011;10952;50.836;4.348;2023-02-20T07:01:36;15.23;;;6.53;;
21581;SDS011;10952;50.836;4.348;2023-02-20T07:04:05;15.37;;;4.97;;
21581;SDS011;10952;50.836;4.348;2023-02-20T07:06:34;20.17;;;5.63;;
21581;SDS011;10952;50.836;4.348;2023-02-20T07:13:59;13.77;;;5.27;;
21581;SDS011;10952;50.836;4.348;2023-02-20T07:28:14;11.60;;;5.90;;
21581;SDS011;10952;50.836;4.348;2023-02-20T07:33:39;16.97;;;6.80;;
21581;SDS011;10952;50.836;4.348;2023-02-20T07:36:13;18.73;;;6.03;;
21581;SDS011;10952;50.836;4.348;2023-02-20T07:41:26;16.57;;;6.00;;
21581;SDS011;10952;50.836;4.348;2023-02-20T07:43:59;19.73;;;7.07;;
21581;SDS011;10952;50.836;4.348;2023-02-20T07:46:25;19.27;;;7.70;;
21581;SDS011;10952;50.836;4.348;2023-02-20T07:51:20;14.50;;;6.50;;
21581;SDS011;10952;50.836;4.348;2023-02-20T07:53:51;86.60;;;26.57;;
21581;SDS011;10952;50.836;4.348;2023-02-20T07:56:23;18.27;;;7.93;;
21581;SDS011;10952;50.836;4.348;2023-02-20T07:58:52;20.20;;;8.63;;
21581;SDS011;10952;50.836;4.348;2023-02-20T08:01:21;22.33;;;7.50;;
21581;SDS011;10952;50.836;4.348;2023-02-20T08:03:50;19.87;;;6.73;;
21581;SDS011;10952;50.836;4.348;2023-02-20T08:11:21;24.90;;;9.33;;
21581;SDS011;10952;50.836;4.348;2023-02-20T08:13:48;21.63;;;8.60;;
21581;SDS011;10952;50.836;4.348;2023-02-20T08:18:43;22.30;;;7.50;;
21581;SDS011;10952;50.836;4.348;2023-02-20T08:23:40;19.07;;;7.13;;
21581;SDS011;10952;50.836;4.348;2023-02-20T08:26:08;18.83;;;7.90;;
21581;SDS011;10952;50.836;4.348;2023-02-20T08:28:34;25.97;;;8.13;;
21581;SDS011;10952;50.836;4.348;2023-02-20T08:31:00;19.73;;;8.87;;
21581;SDS011;10952;50.836;4.348;2023-02-20T08:33:25;22.70;;;8.37;;
21581;SDS011;10952;50.836;4.348;2023-02-20T08:35:54;17.27;;;8.37;;
21581;SDS011;10952;50.836;4.348;2023-02-20T08:38:29;24.27;;;8.97;;
21581;SDS011;10952;50.836;4.348;2023-02-20T08:40:58;21.47;;;9.13;;
21581;SDS011;10952;50.836;4.348;2023-02-20T08:43:29;28.53;;;9.83;;
21581;SDS011;10952;50.836;4.348;2023-02-20T08:45:57;32.43;;;9.77;;
21581;SDS011;10952;50.836;4.348;2023-02-20T08:48:23;18.67;;;9.50;;
21581;SDS011;10952;50.836;4.348;2023-02-20T08:50:48;25.60;;;8.90;;
21581;SDS011;10952;50.836;4.348;2023-02-20T08:53:16;22.97;;;9.47;;
21581;SDS011;10952;50.836;4.348;2023-02-20T08:58:22;20.27;;;8.67;;
21581;SDS011;10952;50.836;4.348;2023-02-20T09:00:52;28.80;;;9.77;;
21581;SDS011;10952;50.836;4.348;2023-02-20T09:05:51;21.20;;;10.27;;
21581;SDS011;10952;50.836;4.348;2023-02-20T09:08:23;23.00;;;10.53;;
21581;SDS011;10952;50.836;4.348;2023-02-20T09:10:49;21.80;;;10.27;;
21581;SDS011;10952;50.836;4.348;2023-02-20T09:15:46;24.83;;;9.20;;
21581;SDS011;10952;50.836;4.348;2023-02-20T09:18:12;22.77;;;9.47;;
21581;SDS011;10952;50.836;4.348;2023-02-20T09:20:44;21.27;;;8.43;;
21581;SDS011;10952;50.836;4.348;2023-02-20T09:23:15;23.93;;;8.90;;
21581;SDS011;10952;50.836;4.348;2023-02-20T09:28:13;23.10;;;8.50;;
21581;SDS011;10952;50.836;4.348;2023-02-20T09:33:11;18.30;;;8.23;;
21581;SDS011;10952;50.836;4.348;2023-02-20T09:35:39;28.20;;;10.90;;
21581;SDS011;10952;50.836;4.348;2023-02-20T09:38:08;25.20;;;9.80;;
21581;SDS011;10952;50.836;4.348;2023-02-20T09:40:35;21.37;;;7.87;;
21581;SDS011;10952;50.836;4.348;2023-02-20T09:45:58;19.67;;;7.80;;
21581;SDS011;10952;50.836;4.348;2023-02-20T09:54:15;29.93;;;8.83;;
21581;SDS011;10952;50.836;4.348;2023-02-20T09:56:57;23.90;;;9.50;;
21581;SDS011;10952;50.836;4.348;2023-02-20T09:59:38;23.67;;;8.73;;
21581;SDS011;10952;50.836;4.348;2023-02-20T10:05:21;27.43;;;10.13;;
21581;SDS011;10952;50.836;4.348;2023-02-20T10:07:52;25.40;;;9.37;;
21581;SDS011;10952;50.836;4.348;2023-02-20T10:10:26;17.57;;;8.63;;
21581;SDS011;10952;50.836;4.348;2023-02-20T10:18:45;23.67;;;10.07;;
21581;SDS011;10952;50.836;4.348;2023-02-20T10:21:44;24.87;;;11.07;;
21581;SDS011;10952;50.836;4.348;2023-02-20T10:36:43;20.37;;;9.17;;
21581;SDS011;10952;50.836;4.348;2023-02-20T10:39:17;19.13;;;8.43;;
21581;SDS011;10952;50.836;4.348;2023-02-20T10:47:30;23.57;;;9.37;;
21581;SDS011;10952;50.836;4.348;2023-02-20T10:58:35;25.03;;;8.07;;
21581;SDS011;10952;50.836;4.348;2023-02-20T11:01:27;18.80;;;8.27;;
21581;SDS011;10952;50.836;4.348;2023-02-20T11:06:58;18.67;;;8.87;;
21581;SDS011;10952;50.836;4.348;2023-02-20T11:09:38;31.53;;;12.17;;
21581;SDS011;10952;50.836;4.348;2023-02-20T11:12:05;25.10;;;12.57;;
21581;SDS011;10952;50.836;4.348;2023-02-20T11:17:12;19.13;;;8.73;;
21581;SDS011;10952;50.836;4.348;2023-02-20T11:19:52;22.70;;;10.43;;
21581;SDS011;10952;50.836;4.348;2023-02-20T11:27:53;21.77;;;10.23;;
21581;SDS011;10952;50.836;4.348;2023-02-20T11:30:23;20.97;;;9.27;;
21581;SDS011;10952;50.836;4.348;2023-02-20T11:33:11;19.53;;;9.00;;
21581;SDS011;10952;50.836;4.348;2023-02-20T11:35:40;28.73;;;10.83;;
21581;SDS011;10952;50.836;4.348;2023-02-20T11:38:25;23.80;;;8.60;;
21581;SDS011;10952;50.836;4.348;2023-02-20T11:43:27;13.43;;;7.83;;
21581;SDS011;10952;50.836;4.348;2023-02-20T11:51:40;21.80;;;9.03;;
21581;SDS011;10952;50.836;4.348;2023-02-20T11:54:22;30.37;;;9.50;;
21581;SDS011;10952;50.836;4.348;2023-02-20T11:59:45;21.07;;;9.83;;
21581;SDS011;10952;50.836;4.348;2023-02-20T12:10:23;19.47;;;10.83;;
21581;SDS011;10952;50.836;4.348;2023-02-20T12:12:48;21.37;;;10.50;;
21581;SDS011;10952;50.836;4.348;2023-02-20T12:15:17;25.33;;;12.10;;
21581;SDS011;10952;50.836;4.348;2023-02-20T12:20:32;20.83;;;10.97;;
21581;SDS011;10952;50.836;4.348;2023-02-20T12:28:47;16.87;;;7.47;;
21581;SDS011;10952;50.836;4.348;2023-02-20T12:34:29;25.10;;;8.90;;
21581;SDS011;10952;50.836;4.348;2023-02-20T12:40:01;17.40;;;6.77;;
21581;SDS011;10952;50.836;4.348;2023-02-20T13:00:14;18.07;;;7.63;;
21581;SDS011;10952;50.836;4.348;2023-02-20T13:05:31;23.90;;;9.20;;
21581;SDS011;10952;50.836;4.348;2023-02-20T13:19:16;25.27;;;11.70;;
21581;SDS011;10952;50.836;4.348;2023-02-20T13:21:58;22.97;;;8.17;;
21581;SDS011;10952;50.836;4.348;2023-02-20T13:24:30;12.93;;;7.23;;
21581;SDS011;10952;50.836;4.348;2023-02-20T13:27:03;19.00;;;7.50;;
21581;SDS011;10952;50.836;4.348;2023-02-20T13:29:35;21.10;;;8.20;;
21581;SDS011;10952;50.836;4.348;2023-02-20T13:34:51;14.97;;;7.83;;
21581;SDS011;10952;50.836;4.348;2023-02-20T13:45:44;23.87;;;9.27;;
21581;SDS011;10952;50.836;4.348;2023-02-20T13:56:20;19.20;;;7.63;;
21581;SDS011;10952;50.836;4.348;2023-02-20T13:58:48;16.57;;;7.97;;
21581;SDS011;10952;50.836;4.348;2023-02-20T14:01:18;20.67;;;7.07;;
21581;SDS011;10952;50.836;4.348;2023-02-20T14:06:30;14.73;;;7.10;;
21581;SDS011;10952;50.836;4.348;2023-02-20T14:09:06;13.00;;;7.73;;
21581;SDS011;10952;50.836;4.348;2023-02-20T14:11:35;15.83;;;7.73;;
21581;SDS011;10952;50.836;4.348;2023-02-20T14:14:04;13.07;;;6.77;;
21581;SDS011;10952;50.836;4.348;2023-02-20T14:16:45;15.87;;;7.40;;
21581;SDS011;10952;50.836;4.348;2023-02-20T14:19:16;15.97;;;7.80;;
21581;SDS011;10952;50.836;4.348;2023-02-20T14:22:12;12.47;;;7.87;;
21581;SDS011;10952;50.836;4.348;2023-02-20T14:25:14;17.67;;;8.20;;
21581;SDS011;10952;50.836;4.348;2023-02-20T14:27:44;18.63;;;8.03;;
21581;SDS011;10952;50.836;4.348;2023-02-20T14:30:15;19.27;;;7.50;;
21581;SDS011;10952;50.836;4.348;2023-02-20T14:32:50;19.10;;;7.50;;
21581;SDS011;10952;50.836;4.348;2023-02-20T14:35:31;23.63;;;8.63;;
21581;SDS011;10952;50.836;4.348;2023-02-20T14:40:56;17.57;;;7.73;;
21581;SDS011;10952;50.836;4.348;2023-02-20T14:46:07;17.87;;;8.27;;
21581;SDS011;10952;50.836;4.348;2023-02-20T14:48:45;16.80;;;7.27;;
21581;SDS011;10952;50.836;4.348;2023-02-20T14:51:23;11.87;;;6.87;;
21581;SDS011;10952;50.836;4.348;2023-02-20T14:54:00;14.27;;;5.80;;
21581;SDS011;10952;50.836;4.348;2023-02-20T14:56:38;13.47;;;6.77;;
21581;SDS011;10952;50.836;4.348;2023-02-20T15:02:43;20.13;;;7.10;;
21581;SDS011;10952;50.836;4.348;2023-02-20T15:04:54;17.03;;;6.70;;
21581;SDS011;10952;50.836;4.348;2023-02-20T15:10:03;14.60;;;6.50;;
21581;SDS011;10952;50.836;4.348;2023-02-20T15:12:38;17.13;;;7.47;;
21581;SDS011;10952;50.836;4.348;2023-02-20T15:15:11;19.97;;;6.73;;
21581;SDS011;10952;50.836;4.348;2023-02-20T15:17:42;17.73;;;8.17;;
21581;SDS011;10952;50.836;4.348;2023-02-20T15:32:12;14.73;;;7.67;;
21581;SDS011;10952;50.836;4.348;2023-02-20T15:35:01;12.03;;;6.00;;
21581;SDS011;10952;50.836;4.348;2023-02-20T15:37:38;12.43;;;7.20;;
21581;SDS011;10952;50.836;4.348;2023-02-20T15:45:26;14.60;;;7.80;;
21581;SDS011;10952;50.836;4.348;2023-02-20T15:47:53;16.17;;;8.17;;
21581;SDS011;10952;50.836;4.348;2023-02-20T15:52:54;20.90;;;7.90;;
21581;SDS011;10952;50.836;4.348;2023-02-20T15:55:24;15.13;;;9.03;;
21581;SDS011;10952;50.836;4.348;2023-02-20T15:57:53;16.17;;;7.50;;
21581;SDS011;10952;50.836;4.348;2023-02-20T16:00:24;16.90;;;7.60;;
21581;SDS011;10952;50.836;4.348;2023-02-20T16:03:00;14.13;;;7.13;;
21581;SDS011;10952;50.836;4.348;2023-02-20T16:05:26;13.47;;;7.67;;
21581;SDS011;10952;50.836;4.348;2023-02-20T16:07:55;15.93;;;7.57;;
21581;SDS011;10952;50.836;4.348;2023-02-20T16:12:54;14.90;;;8.90;;
21581;SDS011;10952;50.836;4.348;2023-02-20T16:15:25;12.57;;;7.60;;
21581;SDS011;10952;50.836;4.348;2023-02-20T16:17:51;23.57;;;8.80;;
21581;SDS011;10952;50.836;4.348;2023-02-20T16:25:22;18.90;;;9.13;;
21581;SDS011;10952;50.836;4.348;2023-02-20T16:27:50;14.80;;;9.20;;
21581;SDS011;10952;50.836;4.348;2023-02-20T16:30:24;15.97;;;9.20;;
21581;SDS011;10952;50.836;4.348;2023-02-20T16:32:58;13.50;;;8.37;;
21581;SDS011;10952;50.836;4.348;2023-02-20T16:35:32;21.90;;;9.27;;
21581;SDS011;10952;50.836;4.348;2023-02-20T16:41:07;15.60;;;9.30;;
21581;SDS011;10952;50.836;4.348;2023-02-20T16:43:39;17.43;;;9.60;;
21581;SDS011;10952;50.836;4.348;2023-02-20T16:46:11;12.97;;;8.37;;
21581;SDS011;10952;50.836;4.348;2023-02-20T16:51:10;17.67;;;10.17;;
21581;SDS011;10952;50.836;4.348;2023-02-20T16:56:09;23.13;;;9.63;;
21581;SDS011;10952;50.836;4.348;2023-02-20T16:58:36;15.83;;;8.33;;
21581;SDS011;10952;50.836;4.348;2023-02-20T17:01:04;21.30;;;8.83;;
21581;SDS011;10952;50.836;4.348;2023-02-20T17:03:36;17.57;;;9.00;;
21581;SDS011;10952;50.836;4.348;2023-02-20T17:06:02;19.37;;;9.27;;
21581;SDS011;10952;50.836;4.348;2023-02-20T17:10:59;15.03;;;9.00;;
21581;SDS011;10952;50.836;4.348;2023-02-20T17:15:57;20.37;;;9.67;;
21581;SDS011;10952;50.836;4.348;2023-02-20T17:18:28;21.20;;;10.50;;
21581;SDS011;10952;50.836;4.348;2023-02-20T17:23:24;18.93;;;10.77;;
21581;SDS011;10952;50.836;4.348;2023-02-20T17:25:52;22.97;;;10.47;;
21581;SDS011;10952;50.836;4.348;2023-02-20T17:28:21;20.77;;;10.23;;
21581;SDS011;10952;50.836;4.348;2023-02-20T17:30:50;20.87;;;10.93;;
21581;SDS011;10952;50.836;4.348;2023-02-20T17:33:20;17.43;;;10.53;;
21581;SDS011;10952;50.836;4.348;2023-02-20T17:35:49;21.83;;;11.37;;
21581;SDS011;10952;50.836;4.348;2023-02-20T17:38:16;20.77;;;11.37;;
21581;SDS011;10952;50.836;4.348;2023-02-20T17:40:42;16.33;;;11.60;;
21581;SDS011;10952;50.836;4.348;2023-02-20T17:43:08;23.33;;;12.10;;
21581;SDS011;10952;50.836;4.348;2023-02-20T17:45:46;21.60;;;11.50;;
21581;SDS011;10952;50.836;4.348;2023-02-20T17:48:15;23.37;;;11.73;;
21581;SDS011;10952;50.836;4.348;2023-02-20T17:50:43;19.73;;;11.53;;
21581;SDS011;10952;50.836;4.348;2023-02-20T17:53:12;18.97;;;12.13;;
21581;SDS011;10952;50.836;4.348;2023-02-20T17:55:42;22.27;;;11.83;;
21581;SDS011;10952;50.836;4.348;2023-02-20T17:58:10;22.87;;;11.50;;
21581;SDS011;10952;50.836;4.348;2023-02-20T18:00:39;20.07;;;12.77;;
21581;SDS011;10952;50.836;4.348;2023-02-20T18:03:07;22.30;;;13.30;;
21581;SDS011;10952;50.836;4.348;2023-02-20T18:05:35;23.03;;;13.23;;
21581;SDS011;10952;50.836;4.348;2023-02-20T18:08:04;30.30;;;13.73;;
21581;SDS011;10952;50.836;4.348;2023-02-20T18:10:33;22.57;;;12.57;;
21581;SDS011;10952;50.836;4.348;2023-02-20T18:13:00;25.33;;;12.60;;
21581;SDS011;10952;50.836;4.348;2023-02-20T18:15:30;22.87;;;12.77;;
21581;SDS011;10952;50.836;4.348;2023-02-20T18:17:57;25.27;;;13.47;;
21581;SDS011;10952;50.836;4.348;2023-02-20T18:20:24;20.47;;;11.93;;
21581;SDS011;10952;50.836;4.348;2023-02-20T18:22:52;19.13;;;12.03;;
21581;SDS011;10952;50.836;4.348;2023-02-20T18:25:21;19.40;;;12.17;;
21581;SDS011;10952;50.836;4.348;2023-02-20T18:27:50;19.83;;;10.60;;
21581;SDS011;10952;50.836;4.348;2023-02-20T18:30:20;22.17;;;10.93;;
21581;SDS011;10952;50.836;4.348;2023-02-20T18:32:48;18.70;;;10.83;;
21581;SDS011;10952;50.836;4.348;2023-02-20T18:35:17;19.87;;;11.97;;
21581;SDS011;10952;50.836;4.348;2023-02-20T18:37:44;18.10;;;11.07;;
21581;SDS011;10952;50.836;4.348;2023-02-20T18:40:15;31.53;;;12.13;;
21581;SDS011;10952;50.836;4.348;2023-02-20T18:45:15;23.70;;;12.70;;
21581;SDS011;10952;50.836;4.348;2023-02-20T18:47:49;20.10;;;12.03;;
21581;SDS011;10952;50.836;4.348;2023-02-20T18:50:22;22.53;;;12.80;;
21581;SDS011;10952;50.836;4.348;2023-02-20T18:52:51;21.80;;;12.13;;
21581;SDS011;10952;50.836;4.348;2023-02-20T18:55:20;22.47;;;13.03;;
21581;SDS011;10952;50.836;4.348;2023-02-20T18:57:51;23.07;;;12.77;;
21581;SDS011;10952;50.836;4.348;2023-02-20T19:00:21;23.33;;;12.93;;
21581;SDS011;10952;50.836;4.348;2023-02-20T19:05:22;23.23;;;14.93;;
21581;SDS011;10952;50.836;4.348;2023-02-20T19:07:52;21.53;;;13.83;;
21581;SDS011;10952;50.836;4.348;2023-02-20T19:10:24;22.80;;;13.33;;
21581;SDS011;10952;50.836;4.348;2023-02-20T19:12:54;20.83;;;13.37;;
21581;SDS011;10952;50.836;4.348;2023-02-20T19:15:23;29.27;;;15.00;;
21581;SDS011;10952;50.836;4.348;2023-02-20T19:20:23;27.13;;;14.87;;
21581;SDS011;10952;50.836;4.348;2023-02-20T19:25:23;22.50;;;14.37;;
21581;SDS011;10952;50.836;4.348;2023-02-20T19:27:55;24.50;;;13.90;;
21581;SDS011;10952;50.836;4.348;2023-02-20T19:30:23;22.80;;;13.13;;
21581;SDS011;10952;50.836;4.348;2023-02-20T19:32:51;26.00;;;14.50;;
21581;SDS011;10952;50.836;4.348;2023-02-20T19:35:23;26.80;;;14.90;;
21581;SDS011;10952;50.836;4.348;2023-02-20T19:37:52;24.13;;;13.80;;
21581;SDS011;10952;50.836;4.348;2023-02-20T19:40:29;30.60;;;15.27;;
21581;SDS011;10952;50.836;4.348;2023-02-20T19:42:58;23.40;;;14.57;;
21581;SDS011;10952;50.836;4.348;2023-02-20T19:45:27;29.50;;;15.70;;
21581;SDS011;10952;50.836;4.348;2023-02-20T19:47:56;28.80;;;16.23;;
21581;SDS011;10952;50.836;4.348;2023-02-20T19:50:25;27.97;;;17.20;;
21581;SDS011;10952;50.836;4.348;2023-02-20T19:55:48;32.80;;;18.27;;
21581;SDS011;10952;50.836;4.348;2023-02-20T19:58:18;33.37;;;18.00;;
21581;SDS011;10952;50.836;4.348;2023-02-20T20:00:44;37.30;;;19.43;;
21581;SDS011;10952;50.836;4.348;2023-02-20T20:05:39;40.30;;;21.53;;
21581;SDS011;10952;50.836;4.348;2023-02-20T20:08:05;41.43;;;22.80;;
21581;SDS011;10952;50.836;4.348;2023-02-20T20:12:59;43.43;;;23.60;;
21581;SDS011;10952;50.836;4.348;2023-02-20T20:15:25;48.83;;;26.30;;
21581;SDS011;10952;50.836;4.348;2023-02-20T20:17:56;41.47;;;24.33;;
21581;SDS011;10952;50.836;4.348;2023-02-20T20:20:29;48.30;;;24.27;;
21581;SDS011;10952;50.836;4.348;2023-02-20T20:22:57;41.83;;;23.53;;
21581;SDS011;10952;50.836;4.348;2023-02-20T20:25:25;46.20;;;24.50;;
21581;SDS011;10952;50.836;4.348;2023-02-20T20:27:52;39.47;;;24.23;;
21581;SDS011;10952;50.836;4.348;2023-02-20T20:32:58;44.67;;;24.27;;
21581;SDS011;10952;50.836;4.348;2023-02-20T20:35:27;47.23;;;26.20;;
21581;SDS011;10952;50.836;4.348;2023-02-20T20:38:00;40.67;;;23.73;;
21581;SDS011;10952;50.836;4.348;2023-02-20T20:40:28;38.93;;;22.83;;
21581;SDS011;10952;50.836;4.348;2023-02-20T20:42:56;39.60;;;21.23;;
21581;SDS011;10952;50.836;4.348;2023-02-20T20:45:23;39.63;;;22.60;;
21581;SDS011;10952;50.836;4.348;2023-02-20T20:47:51;40.80;;;22.27;;
21581;SDS011;10952;50.836;4.348;2023-02-20T20:50:24;36.67;;;21.80;;
21581;SDS011;10952;50.836;4.348;2023-02-20T20:52:58;39.23;;;20.70;;
21581;SDS011;10952;50.836;4.348;2023-02-20T20:55:25;41.23;;;22.03;;
21581;SDS011;10952;50.836;4.348;2023-02-20T20:57:54;43.00;;;24.00;;